Time;durP1;ratioP1;P1;durP2;ratioP2;P2;SDS_P1;SDS_P2;PMS_P1;PMS_P2;Temp;Humidity;BMP_temperature;BMP_pressure;BME280_temperature;BME280_humidity;BME280_pressure;Samples;Min_cycle;Max_cycle;Signal;HPM_P1;HPM_P2
2022/04/23 00:01:44;;;;;;;5.03;2.00;;;;;;;;;;5126248;27;20089;-84
2022/04/23 00:04:10;;;;;;;4.82;2.20;;;;;;;;;;5122792;27;20047;-86
2022/04/23 00:06:36;;;;;;;3.53;2.15;;;;;;;;;;5114807;27;20496;-88
2022/04/23 00:09:02;;;;;;;5.78;2.45;;;;;;;;;;5119652;27;20102;-86
2022/04/23 00:11:27;;;;;;;5.57;2.35;;;;;;;;;;5113660;27;20028;-88
2022/04/23 00:13:54;;;;;;;6.40;2.45;;;;;;;;;;5116309;27;20019;-85
2022/04/23 00:16:19;;;;;;;3.70;1.85;;;;;;;;;;5122526;27;20023;-86
2022/04/23 00:18:45;;;;;;;4.10;2.13;;;;;;;;;;5115215;27;20356;-86
2022/04/23 00:21:11;;;;;;;2.78;1.90;;;;;;;;;;5113651;27;20452;-87
2022/04/23 00:23:36;;;;;;;2.70;1.80;;;;;;;;;;5112275;28;20059;-85
2022/04/23 00:26:02;;;;;;;3.63;1.85;;;;;;;;;;5113121;27;20083;-87
2022/04/23 00:28:27;;;;;;;3.70;2.00;;;;;;;;;;5116319;27;20463;-84
2022/04/23 00:30:53;;;;;;;6.60;2.15;;;;;;;;;;5116069;27;20027;-86
2022/04/23 00:33:19;;;;;;;7.07;2.13;;;;;;;;;;5122132;27;20137;-84
2022/04/23 00:35:45;;;;;;;3.95;1.92;;;;;;;;;;5111849;28;20502;-84
2022/04/23 00:38:11;;;;;;;2.97;1.65;;;;;;;;;;5131511;27;20058;-86
2022/04/23 00:40:39;;;;;;;5.78;2.40;;;;;;;;;;5115662;27;20031;-86
2022/04/23 00:43:10;;;;;;;4.15;2.13;;;;;;;;;;5112805;27;20039;-87
2022/04/23 00:45:36;;;;;;;5.65;2.30;;;;;;;;;;5116947;27;20839;-84
2022/04/23 00:48:02;;;;;;;3.05;1.85;;;;;;;;;;5124738;27;20408;-85
2022/04/23 00:50:28;;;;;;;5.35;2.50;;;;;;;;;;5125679;27;20024;-86
2022/04/23 00:52:58;;;;;;;9.75;3.22;;;;;;;;;;5112076;28;20016;-87
2022/04/23 00:55:25;;;;;;;7.30;2.30;;;;;;;;;;5112162;28;20031;-85
2022/04/23 00:57:51;;;;;;;3.55;1.90;;;;;;;;;;5114691;27;20066;-84
2022/04/23 01:00:18;;;;;;;4.90;1.80;;;;;;;;;;5114174;27;20055;-86
2022/04/23 01:02:44;;;;;;;6.28;2.25;;;;;;;;;;5122628;27;20039;-87
2022/04/23 01:05:10;;;;;;;6.03;2.47;;;;;;;;;;5124497;27;20027;-85
2022/04/23 01:07:45;;;;;;;7.07;1.60;;;;;;;;;;5125038;27;20206;-85
2022/04/23 01:10:11;;;;;;;4.45;1.73;;;;;;;;;;5119587;27;20034;-84
2022/04/23 01:12:38;;;;;;;3.40;1.70;;;;;;;;;;5127803;27;20019;-84
2022/04/23 01:15:09;;;;;;;5.43;1.77;;;;;;;;;;5124852;27;20031;-85
2022/04/23 01:17:36;;;;;;;3.55;1.92;;;;;;;;;;5123088;27;20027;-87
2022/04/23 01:20:11;;;;;;;3.30;2.03;;;;;;;;;;5121178;27;20070;-86
2022/04/23 01:22:43;;;;;;;7.30;2.00;;;;;;;;;;5118302;27;20023;-84
2022/04/23 01:25:12;;;;;;;5.35;1.88;;;;;;;;;;5118136;27;20035;-85
2022/04/23 01:27:41;;;;;;;5.97;1.98;;;;;;;;;;5118688;27;20035;-85
2022/04/23 01:30:08;;;;;;;3.38;1.75;;;;;;;;;;5119940;27;20035;-85
2022/04/23 01:32:34;;;;;;;6.38;2.38;;;;;;;;;;5126635;27;20149;-84
2022/04/23 01:35:04;;;;;;;4.93;2.10;;;;;;;;;;5117422;28;20102;-86
2022/04/23 01:37:30;;;;;;;3.33;1.52;;;;;;;;;;5120557;27;20027;-86
2022/04/23 01:39:56;;;;;;;8.13;2.13;;;;;;;;;;5123167;28;20125;-87
2022/04/23 01:42:21;;;;;;;4.28;1.98;;;;;;;;;;5123875;28;20383;-85
2022/04/23 01:44:48;;;;;;;7.03;2.88;;;;;;;;;;5128272;27;20395;-87
2022/04/23 01:47:14;;;;;;;6.55;2.20;;;;;;;;;;5114011;28;20026;-85
2022/04/23 01:49:40;;;;;;;5.57;2.20;;;;;;;;;;5121536;28;20042;-86
2022/04/23 01:52:06;;;;;;;5.78;2.20;;;;;;;;;;5114945;28;20028;-84
2022/04/23 01:54:32;;;;;;;6.65;2.03;;;;;;;;;;5115687;28;20031;-84
2022/04/23 01:56:59;;;;;;;5.97;2.42;;;;;;;;;;5120117;28;20019;-86
2022/04/23 01:59:25;;;;;;;5.75;2.13;;;;;;;;;;5116240;28;20023;-84
2022/04/23 02:01:51;;;;;;;7.88;2.28;;;;;;;;;;5116327;28;20023;-84
2022/04/23 02:04:16;;;;;;;3.63;1.98;;;;;;;;;;5122890;28;20037;-82
2022/04/23 02:06:42;;;;;;;5.55;2.28;;;;;;;;;;5112256;28;20024;-83
2022/04/23 02:09:08;;;;;;;3.58;1.90;;;;;;;;;;5125552;28;20032;-85
2022/04/23 02:11:33;;;;;;;5.22;1.92;;;;;;;;;;5117031;28;20024;-87
2022/04/23 02:14:02;;;;;;;6.53;2.28;;;;;;;;;;5118768;28;20485;-86
2022/04/23 02:16:28;;;;;;;6.18;2.00;;;;;;;;;;5123227;27;20030;-85
2022/04/23 02:18:54;;;;;;;5.63;2.55;;;;;;;;;;5110160;28;20064;-86
2022/04/23 02:21:20;;;;;;;4.18;1.83;;;;;;;;;;5115131;28;20377;-86
2022/04/23 02:23:45;;;;;;;5.20;2.13;;;;;;;;;;5125576;28;20035;-85
2022/04/23 02:26:10;;;;;;;4.18;2.33;;;;;;;;;;5112331;28;20043;-84
2022/04/23 02:28:39;;;;;;;5.88;2.03;;;;;;;;;;5125256;28;20027;-84
2022/04/23 02:31:05;;;;;;;6.53;2.13;;;;;;;;;;5116276;28;20096;-86
2022/04/23 02:33:31;;;;;;;5.85;2.38;;;;;;;;;;5123782;28;20023;-86
2022/04/23 02:35:57;;;;;;;4.63;2.15;;;;;;;;;;5113969;28;20032;-85
2022/04/23 02:38:22;;;;;;;4.68;2.03;;;;;;;;;;5124725;28;20043;-87
2022/04/23 02:40:48;;;;;;;3.42;2.13;;;;;;;;;;5117367;27;20382;-84
2022/04/23 02:43:13;;;;;;;4.43;2.40;;;;;;;;;;5125119;27;20522;-84
2022/04/23 02:45:39;;;;;;;5.97;2.17;;;;;;;;;;5115369;27;20483;-86
2022/04/23 02:48:05;;;;;;;7.82;2.50;;;;;;;;;;5121623;27;20023;-87
2022/04/23 02:50:37;;;;;;;6.25;2.47;;;;;;;;;;5129725;27;20019;-85
2022/04/23 02:53:04;;;;;;;6.82;2.33;;;;;;;;;;5125908;27;20468;-84
2022/04/23 02:55:34;;;;;;;5.60;2.42;;;;;;;;;;5129765;27;20088;-87
2022/04/23 02:58:05;;;;;;;5.32;2.22;;;;;;;;;;5127671;27;20019;-85
2022/04/23 03:00:30;;;;;;;6.13;3.13;;;;;;;;;;5116293;27;20051;-86
2022/04/23 03:02:56;;;;;;;4.55;2.30;;;;;;;;;;5114576;27;20487;-86
2022/04/23 03:05:22;;;;;;;5.00;2.55;;;;;;;;;;5121313;27;20020;-86
2022/04/23 03:07:50;;;;;;;4.57;2.38;;;;;;;;;;5117379;27;20039;-84
2022/04/23 03:10:18;;;;;;;6.78;2.53;;;;;;;;;;5116466;27;20027;-85
2022/04/23 03:12:44;;;;;;;5.35;2.33;;;;;;;;;;5123342;27;20023;-85
2022/04/23 03:15:18;;;;;;;4.70;2.50;;;;;;;;;;5116440;27;20061;-85
2022/04/23 03:17:45;;;;;;;5.22;2.90;;;;;;;;;;5116209;27;20108;-85
2022/04/23 03:20:12;;;;;;;5.10;2.17;;;;;;;;;;5114907;27;20046;-85
2022/04/23 03:22:39;;;;;;;5.47;2.08;;;;;;;;;;5121679;27;20038;-85
2022/04/23 03:25:09;;;;;;;6.40;2.88;;;;;;;;;;5116773;27;20035;-87
2022/04/23 03:27:35;;;;;;;;;;;;;;;;;;5116174;27;20023;-86
2022/04/23 03:30:01;;;;;;;4.80;2.28;;;;;;;;;;5125844;27;20367;-85
2022/04/23 03:32:27;;;;;;;3.58;2.25;;;;;;;;;;5128246;27;20030;-86
2022/04/23 03:34:53;;;;;;;6.78;2.13;;;;;;;;;;5118031;27;20033;-85
2022/04/23 03:37:18;;;;;;;7.22;2.30;;;;;;;;;;5117739;27;20023;-84
2022/04/23 03:39:47;;;;;;;7.15;2.50;;;;;;;;;;5125008;27;20069;-85
2022/04/23 03:42:12;;;;;;;3.20;2.15;;;;;;;;;;5127543;27;20536;-85
2022/04/23 03:44:38;;;;;;;5.00;2.22;;;;;;;;;;5116823;27;20023;-82
2022/04/23 03:47:04;;;;;;;5.80;2.45;;;;;;;;;;5113270;27;20111;-84
2022/04/23 03:49:30;;;;;;;3.85;2.22;;;;;;;;;;5121566;27;20023;-84
2022/04/23 03:51:56;;;;;;;3.55;2.20;;;;;;;;;;5118246;27;20024;-84
2022/04/23 03:54:22;;;;;;;3.72;2.33;;;;;;;;;;5126573;27;20459;-82
2022/04/23 03:56:48;;;;;;;6.32;2.53;;;;;;;;;;5128660;27;20493;-86
2022/04/23 03:59:14;;;;;;;5.28;2.17;;;;;;;;;;5131125;27;20050;-86
2022/04/23 04:01:41;;;;;;;4.45;2.20;;;;;;;;;;5118881;27;20032;-86
2022/04/23 04:04:09;;;;;;;7.20;2.30;;;;;;;;;;5122174;27;20084;-84
2022/04/23 04:06:34;;;;;;;5.47;2.08;;;;;;;;;;5125551;27;20048;-88
2022/04/23 04:08:59;;;;;;;4.18;2.10;;;;;;;;;;5121357;27;20031;-85
2022/04/23 04:11:25;;;;;;;4.05;2.45;;;;;;;;;;5121217;27;20065;-85
2022/04/23 04:13:50;;;;;;;5.60;2.80;;;;;;;;;;5119137;27;20176;-84
2022/04/23 04:16:18;;;;;;;4.80;2.20;;;;;;;;;;5113994;27;20035;-86
2022/04/23 04:18:46;;;;;;;4.65;2.30;;;;;;;;;;5115183;27;20450;-86
2022/04/23 04:21:13;;;;;;;8.18;2.53;;;;;;;;;;5128474;27;20023;-86
2022/04/23 04:23:39;;;;;;;6.22;2.60;;;;;;;;;;5124089;27;20375;-86
2022/04/23 04:26:07;;;;;;;2.65;1.92;;;;;;;;;;5128890;27;20646;-86
2022/04/23 04:28:32;;;;;;;6.10;2.53;;;;;;;;;;5115473;27;20383;-82
2022/04/23 04:33:42;;;;;;;5.13;2.60;;;;;;;;;;5121729;27;20026;-85
2022/04/23 04:36:07;;;;;;;4.53;2.38;;;;;;;;;;5125817;27;20031;-84
2022/04/23 04:38:33;;;;;;;3.17;2.25;;;;;;;;;;5114764;27;20050;-87
2022/04/23 04:40:59;;;;;;;5.40;2.70;;;;;;;;;;5125759;27;20458;-88
2022/04/23 04:43:25;;;;;;;5.80;2.53;;;;;;;;;;5124205;27;20038;-85
2022/04/23 04:45:51;;;;;;;3.85;2.25;;;;;;;;;;5114573;27;20028;-85
2022/04/23 04:48:17;;;;;;;3.90;2.70;;;;;;;;;;5122574;27;20031;-85
2022/04/23 04:50:42;;;;;;;6.68;2.45;;;;;;;;;;5124694;27;20394;-86
2022/04/23 04:53:08;;;;;;;6.80;2.13;;;;;;;;;;5121417;27;20064;-87
2022/04/23 04:55:34;;;;;;;4.38;2.17;;;;;;;;;;5117333;27;20030;-89
2022/04/23 04:57:59;;;;;;;4.78;2.50;;;;;;;;;;5119076;27;20508;-86
2022/04/23 05:00:25;;;;;;;6.43;3.22;;;;;;;;;;5121204;27;20051;-87
2022/04/23 05:02:50;;;;;;;5.93;2.50;;;;;;;;;;5117077;27;20057;-86
2022/04/23 05:05:16;;;;;;;4.32;2.90;;;;;;;;;;5119148;27;20483;-86
2022/04/23 05:07:41;;;;;;;4.20;2.47;;;;;;;;;;5124318;27;20452;-87
2022/04/23 05:10:07;;;;;;;7.47;2.70;;;;;;;;;;5125179;27;20030;-86
2022/04/23 05:12:33;;;;;;;5.22;2.80;;;;;;;;;;5117780;27;20051;-87
2022/04/23 05:14:58;;;;;;;6.30;2.80;;;;;;;;;;5112010;27;20520;-88
2022/04/23 05:17:24;;;;;;;4.38;2.50;;;;;;;;;;5111271;28;20027;-87
2022/04/23 05:19:49;;;;;;;4.75;2.38;;;;;;;;;;5121766;27;20032;-86
2022/04/23 05:22:15;;;;;;;7.47;2.95;;;;;;;;;;5113307;27;20841;-86
2022/04/23 05:24:40;;;;;;;11.70;2.22;;;;;;;;;;5114322;27;20360;-87
2022/04/23 05:27:05;;;;;;;5.82;2.28;;;;;;;;;;5126494;27;20050;-89
2022/04/23 05:29:31;;;;;;;4.43;2.13;;;;;;;;;;5115277;27;20106;-88
2022/04/23 05:31:56;;;;;;;3.60;1.73;;;;;;;;;;5113490;27;20424;-88
2022/04/23 05:34:24;;;;;;;2.58;1.73;;;;;;;;;;5112168;27;20019;-87
2022/04/23 05:37:08;;;;;;;7.40;2.58;;;;;;;;;;5125980;27;20140;-88
2022/04/23 05:39:33;;;;;;;6.82;2.35;;;;;;;;;;5110377;28;20027;-86
2022/04/23 05:41:59;;;;;;;7.38;2.97;;;;;;;;;;5107254;28;20110;-87
2022/04/23 05:44:24;;;;;;;4.63;1.63;;;;;;;;;;5107988;28;20055;-87
2022/04/23 05:46:50;;;;;;;5.63;2.25;;;;;;;;;;5108616;28;20024;-87
2022/04/23 05:49:15;;;;;;;7.00;2.25;;;;;;;;;;5108594;28;20023;-87
2022/04/23 05:51:41;;;;;;;5.53;2.25;;;;;;;;;;5108534;28;20020;-86
2022/04/23 05:54:06;;;;;;;4.07;2.50;;;;;;;;;;5109535;28;20035;-87
2022/04/23 05:56:32;;;;;;;6.25;2.70;;;;;;;;;;5108489;28;20080;-88
2022/04/23 05:58:57;;;;;;;3.97;2.53;;;;;;;;;;5108100;28;20131;-86
2022/04/23 06:01:23;;;;;;;8.82;2.47;;;;;;;;;;5108444;28;21287;-87
2022/04/23 06:03:48;;;;;;;3.60;2.20;;;;;;;;;;5109706;28;20463;-86
2022/04/23 06:06:13;;;;;;;3.78;2.38;;;;;;;;;;5107835;28;20489;-87
2022/04/23 06:08:42;;;;;;;6.15;2.78;;;;;;;;;;5108186;28;20054;-87
2022/04/23 06:11:08;;;;;;;6.80;2.75;;;;;;;;;;5108294;28;20028;-87
2022/04/23 06:13:34;;;;;;;5.45;2.92;;;;;;;;;;5108564;28;20042;-86
2022/04/23 06:15:59;;;;;;;3.60;2.80;;;;;;;;;;5108411;28;20103;-88
2022/04/23 06:18:25;;;;;;;6.60;2.67;;;;;;;;;;5108618;28;20024;-87
2022/04/23 06:20:51;;;;;;;5.63;2.40;;;;;;;;;;5108591;28;20023;-87
2022/04/23 06:23:16;;;;;;;5.25;2.70;;;;;;;;;;5108393;28;20036;-87
2022/04/23 06:25:42;;;;;;;4.93;3.05;;;;;;;;;;5109255;28;20031;-87
2022/04/23 06:28:10;;;;;;;5.85;2.50;;;;;;;;;;5107946;28;20055;-87
2022/04/23 06:30:37;;;;;;;4.15;2.42;;;;;;;;;;5108717;28;20110;-89
2022/04/23 06:33:02;;;;;;;6.63;2.47;;;;;;;;;;5107703;28;20031;-88
2022/04/23 06:35:27;;;;;;;5.88;2.53;;;;;;;;;;5107640;28;20043;-86
2022/04/23 06:37:54;;;;;;;4.93;2.70;;;;;;;;;;5107467;28;20042;-86
2022/04/23 06:40:20;;;;;;;5.38;3.10;;;;;;;;;;5108550;28;20107;-86
2022/04/23 06:42:45;;;;;;;4.38;2.50;;;;;;;;;;5107167;28;20119;-84
2022/04/23 06:45:11;;;;;;;5.90;2.95;;;;;;;;;;5107931;28;20020;-81
2022/04/23 06:47:36;;;;;;;6.35;2.70;;;;;;;;;;5095572;28;20028;-84
2022/04/23 06:50:03;;;;;;;7.88;5.13;;;;;;;;;;5093051;28;20028;-85
2022/04/23 06:52:28;;;;;;;11.15;3.80;;;;;;;;;;5089459;28;20425;-87
2022/04/23 06:54:54;;;;;;;5.18;2.75;;;;;;;;;;5090200;28;20092;-83
2022/04/23 06:57:24;;;;;;;8.52;3.65;;;;;;;;;;5094272;28;20028;-83
2022/04/23 06:59:50;;;;;;;3.95;2.67;;;;;;;;;;5086058;28;20384;-87
2022/04/23 07:02:16;;;;;;;6.32;3.22;;;;;;;;;;5089812;28;20126;-85
2022/04/23 07:04:42;;;;;;;6.57;2.78;;;;;;;;;;5093847;28;20020;-83
2022/04/23 07:07:10;;;;;;;9.13;3.67;;;;;;;;;;5088025;28;20788;-86
2022/04/23 07:09:36;;;;;;;5.80;2.97;;;;;;;;;;5092911;28;20038;-86
2022/04/23 07:12:02;;;;;;;6.50;2.75;;;;;;;;;;5092863;28;20027;-85
2022/04/23 07:14:27;;;;;;;6.75;3.22;;;;;;;;;;5092443;28;20020;-86
2022/04/23 07:16:53;;;;;;;6.90;3.60;;;;;;;;;;5094810;28;20119;-84
2022/04/23 07:19:19;;;;;;;7.47;3.88;;;;;;;;;;5092627;28;20036;-83
2022/04/23 07:21:44;;;;;;;6.70;3.95;;;;;;;;;;5092646;28;20114;-87
2022/04/23 07:24:11;;;;;;;6.88;3.30;;;;;;;;;;5091284;28;20387;-85
2022/04/23 07:26:37;;;;;;;4.85;3.05;;;;;;;;;;5091001;28;20101;-85
2022/04/23 07:29:08;;;;;;;6.78;3.53;;;;;;;;;;5092565;28;20028;-83
2022/04/23 07:31:34;;;;;;;4.38;3.15;;;;;;;;;;5092423;28;20617;-84
2022/04/23 07:39:27;;;;;;;6.45;3.63;;;;;;;;;;5092733;28;20061;-86
2022/04/23 07:41:54;;;;;;;7.55;4.03;;;;;;;;;;5091887;28;20126;-86
2022/04/23 07:44:21;;;;;;;7.13;4.97;;;;;;;;;;5088647;28;20105;-85
2022/04/23 07:46:47;;;;;;;4.72;3.15;;;;;;;;;;5086809;28;20023;-83
2022/04/23 07:49:13;;;;;;;5.53;3.25;;;;;;;;;;5092393;28;20031;-84
2022/04/23 07:51:39;;;;;;;4.28;3.22;;;;;;;;;;5090008;28;20032;-83
2022/04/23 07:54:04;;;;;;;5.03;3.35;;;;;;;;;;5090769;28;20044;-82
2022/04/23 07:56:30;;;;;;;5.78;3.15;;;;;;;;;;5093126;28;20031;-83
2022/04/23 07:58:56;;;;;;;7.60;3.60;;;;;;;;;;5091771;28;20120;-84
2022/04/23 08:01:21;;;;;;;7.30;3.40;;;;;;;;;;5091392;28;20024;-85
2022/04/23 08:03:47;;;;;;;4.03;3.00;;;;;;;;;;5092312;28;20024;-85
2022/04/23 08:06:13;;;;;;;4.55;2.92;;;;;;;;;;5086729;28;20432;-81
2022/04/23 08:08:39;;;;;;;5.70;3.28;;;;;;;;;;5090241;28;20020;-84
2022/04/23 08:11:05;;;;;;;6.05;3.10;;;;;;;;;;5082287;28;20471;-86
2022/04/23 08:13:32;;;;;;;6.82;3.20;;;;;;;;;;5089413;28;20021;-83
2022/04/23 08:15:59;;;;;;;6.22;2.50;;;;;;;;;;5092811;28;20031;-84
2022/04/23 08:18:26;;;;;;;4.55;2.90;;;;;;;;;;5089485;28;20032;-85
2022/04/23 08:20:52;;;;;;;6.45;2.60;;;;;;;;;;5091732;28;20388;-85
2022/04/23 08:23:19;;;;;;;4.82;2.67;;;;;;;;;;5092002;28;20032;-84
2022/04/23 08:25:46;;;;;;;4.55;3.03;;;;;;;;;;5087926;28;20020;-83
2022/04/23 08:30:57;;;;;;;5.15;3.05;;;;;;;;;;5092195;28;20089;-84
2022/04/23 08:33:23;;;;;;;8.00;3.15;;;;;;;;;;5085650;28;20039;-84
2022/04/23 08:35:50;;;;;;;7.03;3.00;;;;;;;;;;5090383;28;20036;-82
2022/04/23 08:38:16;;;;;;;5.18;2.58;;;;;;;;;;5089577;28;20024;-82
2022/04/23 08:40:44;;;;;;;3.67;2.17;;;;;;;;;;5090852;28;20027;-83
2022/04/23 08:43:10;;;;;;;3.75;2.63;;;;;;;;;;5087475;28;20028;-84
2022/04/23 08:45:37;;;;;;;4.30;2.05;;;;;;;;;;5090672;28;20121;-84
2022/04/23 08:48:08;;;;;;;3.08;1.85;;;;;;;;;;5091514;28;20054;-83
2022/04/23 08:50:36;;;;;;;2.30;1.70;;;;;;;;;;5091094;28;21051;-84
2022/04/23 08:53:08;;;;;;;4.18;2.03;;;;;;;;;;5089618;28;20035;-84
2022/04/23 08:55:40;;;;;;;10.25;5.85;;;;;;;;;;5088969;28;20383;-84
2022/04/23 08:58:05;;;;;;;4.60;2.58;;;;;;;;;;5090059;28;20036;-82
2022/04/23 09:00:31;;;;;;;6.10;2.90;;;;;;;;;;5089186;28;20034;-83
2022/04/23 09:02:56;;;;;;;4.40;2.08;;;;;;;;;;5091221;28;20031;-85
2022/04/23 09:05:24;;;;;;;4.47;1.67;;;;;;;;;;5088368;28;20115;-82
2022/04/23 09:07:54;;;;;;;4.53;2.70;;;;;;;;;;5090099;28;20035;-84
2022/04/23 09:10:20;;;;;;;4.72;1.88;;;;;;;;;;5089401;28;20116;-85
2022/04/23 09:12:56;;;;;;;4.63;2.05;;;;;;;;;;5089732;28;20463;-85
2022/04/23 09:24:09;;;;;;;2.72;1.38;;;;;;;;;;5088873;28;20038;-82
2022/04/23 09:26:35;;;;;;;5.35;2.45;;;;;;;;;;5090279;28;20020;-81
2022/04/23 09:29:12;;;;;;;4.10;2.47;;;;;;;;;;5088687;28;20506;-84
2022/04/23 09:31:37;;;;;;;3.33;1.90;;;;;;;;;;5091555;28;20120;-83
2022/04/23 09:34:14;;;;;;;3.88;1.83;;;;;;;;;;5088104;28;20677;-81
2022/04/23 09:37:00;;;;;;;4.40;1.98;;;;;;;;;;5087730;28;20130;-84
2022/04/23 09:39:34;;;;;;;4.47;2.05;;;;;;;;;;5088829;28;20077;-80
2022/04/23 09:42:14;;;;;;;2.13;1.63;;;;;;;;;;5090253;28;20043;-85
2022/04/23 09:44:40;;;;;;;2.20;1.40;;;;;;;;;;5087871;28;20097;-82
2022/04/23 09:47:05;;;;;;;3.58;1.92;;;;;;;;;;5090119;28;20123;-83
2022/04/23 09:49:31;;;;;;;2.60;1.70;;;;;;;;;;5090906;28;20530;-82
2022/04/23 09:52:00;;;;;;;2.35;1.20;;;;;;;;;;5084542;28;20063;-86
2022/04/23 09:54:28;;;;;;;3.30;1.75;;;;;;;;;;5088941;28;20043;-82
2022/04/23 09:56:53;;;;;;;3.35;1.90;;;;;;;;;;5090798;28;20047;-83
2022/04/23 09:59:19;;;;;;;2.30;1.60;;;;;;;;;;5086024;28;20077;-83
2022/04/23 10:01:47;;;;;;;3.53;1.98;;;;;;;;;;5089505;28;20700;-84
2022/04/23 10:04:17;;;;;;;2.72;1.40;;;;;;;;;;5085699;28;20421;-85
2022/04/23 10:06:44;;;;;;;3.67;1.73;;;;;;;;;;5104496;28;20025;-83
2022/04/23 10:09:13;;;;;;;4.50;1.67;;;;;;;;;;5090129;28;20032;-82
2022/04/23 10:11:42;;;;;;;5.05;2.75;;;;;;;;;;5089469;28;20689;-82
2022/04/23 10:14:11;;;;;;;6.43;2.33;;;;;;;;;;5088213;28;20030;-82
2022/04/23 10:16:39;;;;;;;5.00;2.05;;;;;;;;;;5088403;28;20045;-82
2022/04/23 10:19:06;;;;;;;3.63;2.03;;;;;;;;;;5089804;28;20032;-83
2022/04/23 10:21:47;;;;;;;2.45;1.70;;;;;;;;;;5090921;28;20028;-82
2022/04/23 10:24:32;;;;;;;3.83;1.63;;;;;;;;;;5094809;28;20051;-84
2022/04/23 10:27:07;;;;;;;2.60;1.45;;;;;;;;;;5092315;28;20107;-83
2022/04/23 10:29:33;;;;;;;4.28;2.13;;;;;;;;;;5092178;28;20112;-82
2022/04/23 10:32:11;;;;;;;3.42;1.60;;;;;;;;;;5093694;28;20107;-84
2022/04/23 10:34:38;;;;;;;3.50;1.77;;;;;;;;;;5092631;28;20103;-84
2022/04/23 10:37:35;;;;;;;5.60;1.58;;;;;;;;;;5092805;28;20426;-86
2022/04/23 10:40:00;;;;;;;2.33;1.85;;;;;;;;;;5090357;28;20456;-84
2022/04/23 10:42:26;;;;;;;4.95;1.92;;;;;;;;;;5092228;28;20020;-82
2022/04/23 10:45:00;;;;;;;4.50;1.88;;;;;;;;;;5090338;28;20028;-83
2022/04/23 10:47:39;;;;;;;4.43;2.08;;;;;;;;;;5092451;28;20030;-83
2022/04/23 10:50:22;;;;;;;5.88;1.50;;;;;;;;;;5090659;28;20028;-83
2022/04/23 10:52:49;;;;;;;2.85;1.70;;;;;;;;;;5092208;28;20051;-82
2022/04/23 10:55:16;;;;;;;4.55;2.05;;;;;;;;;;5094024;28;20028;-84
2022/04/23 10:57:52;;;;;;;5.47;2.25;;;;;;;;;;5092859;28;20020;-82
2022/04/23 11:00:20;;;;;;;6.85;2.42;;;;;;;;;;5089855;28;20027;-82
2022/04/23 11:02:57;;;;;;;4.28;2.22;;;;;;;;;;5091003;28;20387;-82
2022/04/23 11:13:48;;;;;;;5.90;2.85;;;;;;;;;;5093308;28;20101;-83
2022/04/23 11:16:16;;;;;;;5.47;1.85;;;;;;;;;;5092232;28;20024;-83
2022/04/23 11:18:44;;;;;;;4.35;2.00;;;;;;;;;;5091318;28;20032;-84
2022/04/23 11:21:26;;;;;;;5.82;2.15;;;;;;;;;;5092770;28;20034;-83
2022/04/23 11:23:53;;;;;;;8.18;2.35;;;;;;;;;;5090525;28;20023;-85
2022/04/23 11:26:22;;;;;;;6.53;1.98;;;;;;;;;;5091442;28;20047;-85
2022/04/23 11:28:59;;;;;;;5.60;2.50;;;;;;;;;;5090239;28;20541;-85
2022/04/23 11:31:25;;;;;;;6.82;2.90;;;;;;;;;;5091811;28;20032;-84
2022/04/23 11:33:58;;;;;;;5.72;2.00;;;;;;;;;;5089202;28;20039;-85
2022/04/23 11:36:34;;;;;;;5.25;2.15;;;;;;;;;;5091139;28;20040;-86
2022/04/23 11:39:09;;;;;;;3.78;2.10;;;;;;;;;;5092725;28;20383;-86
2022/04/23 11:41:48;;;;;;;5.93;1.90;;;;;;;;;;5094195;28;20039;-85
2022/04/23 11:44:15;;;;;;;;;;;;;;;;;;5088726;28;20409;-87
2022/04/23 11:46:48;;;;;;;5.57;2.17;;;;;;;;;;5091879;28;20019;-85
2022/04/23 11:49:29;;;;;;;6.38;2.75;;;;;;;;;;5092282;28;20032;-85
2022/04/23 11:52:07;;;;;;;3.83;2.33;;;;;;;;;;5093940;28;20031;-84
2022/04/23 11:54:37;;;;;;;4.20;2.15;;;;;;;;;;5090834;28;20119;-85
2022/04/23 11:57:05;;;;;;;4.75;1.90;;;;;;;;;;5091005;28;20544;-84
2022/04/23 11:59:44;;;;;;;5.20;2.33;;;;;;;;;;5092184;28;20192;-87
2022/04/23 12:02:25;;;;;;;5.28;2.70;;;;;;;;;;5089802;28;20020;-87
2022/04/23 12:04:57;;;;;;;9.85;7.22;;;;;;;;;;5091495;28;20030;-84
2022/04/23 12:07:23;;;;;;;5.70;2.20;;;;;;;;;;5092527;28;20551;-85
2022/04/23 12:09:56;;;;;;;8.50;2.63;;;;;;;;;;5093490;28;20028;-84
2022/04/23 12:12:25;;;;;;;8.68;2.10;;;;;;;;;;5091703;28;20044;-84
2022/04/23 12:14:56;;;;;;;20.65;14.07;;;;;;;;;;5088939;28;20055;-85
2022/04/23 12:17:26;;;;;;;106.00;54.92;;;;;;;;;;5091482;28;20036;-84
2022/04/23 12:19:56;;;;;;;298.73;141.65;;;;;;;;;;5090233;28;20032;-89
2022/04/23 12:22:31;;;;;;;5.93;2.17;;;;;;;;;;5091279;28;20538;-84
2022/04/23 12:25:18;;;;;;;7.13;3.35;;;;;;;;;;5089009;28;20040;-86
2022/04/23 12:28:00;;;;;;;4.95;2.20;;;;;;;;;;5090087;28;20031;-85
2022/04/23 12:41:39;;;;;;;5.50;2.05;;;;;;;;;;5091746;28;20035;-83
2022/04/23 12:44:18;;;;;;;4.05;1.50;;;;;;;;;;5090799;28;20032;-84
2022/04/23 12:46:54;;;;;;;5.25;1.85;;;;;;;;;;5085737;28;20020;-86
2022/04/23 12:49:20;;;;;;;3.30;1.33;;;;;;;;;;5090413;28;20074;-83
2022/04/23 12:51:53;;;;;;;5.05;1.42;;;;;;;;;;5091288;28;20031;-85
2022/04/23 12:54:21;;;;;;;5.97;1.58;;;;;;;;;;5090839;28;20024;-85
2022/04/23 12:56:48;;;;;;;4.45;1.60;;;;;;;;;;5092072;28;20032;-86
2022/04/23 12:59:13;;;;;;;14.90;10.98;;;;;;;;;;5085568;28;20557;-85
2022/04/23 13:01:39;;;;;;;5.15;1.80;;;;;;;;;;5089692;28;20146;-84
2022/04/23 13:04:09;;;;;;;3.63;1.50;;;;;;;;;;5088537;28;20032;-86
2022/04/23 13:09:18;;;;;;;4.70;1.25;;;;;;;;;;5090717;28;20060;-85
2022/04/23 13:11:44;;;;;;;3.92;1.55;;;;;;;;;;5090553;28;20494;-85
2022/04/23 13:14:12;;;;;;;4.03;1.25;;;;;;;;;;5089294;28;20429;-85
2022/04/23 13:16:39;;;;;;;6.20;4.50;;;;;;;;;;5088684;28;20020;-86
2022/04/23 13:19:05;;;;;;;2.90;1.50;;;;;;;;;;5091591;28;20028;-84
2022/04/23 13:21:32;;;;;;;4.15;2.25;;;;;;;;;;5091925;28;20449;-86
2022/04/23 13:23:58;;;;;;;4.50;1.90;;;;;;;;;;5091373;28;20119;-83
2022/04/23 13:26:27;;;;;;;7.32;3.80;;;;;;;;;;5091910;28;20038;-85
2022/04/23 13:28:53;;;;;;;16.67;11.65;;;;;;;;;;5091923;28;20012;-89
2022/04/23 13:31:19;;;;;;;2.92;1.52;;;;;;;;;;5090644;28;20763;-86
2022/04/23 13:33:44;;;;;;;2.95;0.98;;;;;;;;;;5085889;28;20078;-84
2022/04/23 13:36:10;;;;;;;4.15;1.70;;;;;;;;;;5089673;28;20040;-86
2022/04/23 13:38:36;;;;;;;4.85;1.30;;;;;;;;;;5084982;28;20103;-88
2022/04/23 13:41:04;;;;;;;5.25;1.58;;;;;;;;;;5090921;28;20056;-87
2022/04/23 13:43:30;;;;;;;2.83;1.13;;;;;;;;;;5092104;28;20099;-85
2022/04/23 13:45:57;;;;;;;4.47;1.42;;;;;;;;;;5091057;28;20032;-84
2022/04/23 13:48:24;;;;;;;4.70;1.30;;;;;;;;;;5091813;28;20395;-88
2022/04/23 13:50:50;;;;;;;4.03;1.85;;;;;;;;;;5091587;28;20023;-85
2022/04/23 13:53:15;;;;;;;5.53;1.70;;;;;;;;;;5089276;28;20032;-84
2022/04/23 13:55:41;;;;;;;3.88;1.75;;;;;;;;;;5091789;28;20020;-86
2022/04/23 13:58:06;;;;;;;6.65;1.63;;;;;;;;;;5089492;28;20040;-87
2022/04/23 14:00:31;;;;;;;4.40;1.20;;;;;;;;;;5094523;28;20020;-84
2022/04/23 14:11:09;;;;;;;4.43;1.80;;;;;;;;;;5093088;28;20080;-86
2022/04/23 14:13:35;;;;;;;4.53;1.73;;;;;;;;;;5093700;28;20020;-87
2022/04/23 14:16:00;;;;;;;3.75;1.60;;;;;;;;;;5094307;28;20024;-84
2022/04/23 14:18:26;;;;;;;2.55;1.20;;;;;;;;;;5095214;28;20442;-84
2022/04/23 14:20:52;;;;;;;4.05;1.45;;;;;;;;;;5095406;28;20020;-85
2022/04/23 14:23:17;;;;;;;4.63;1.40;;;;;;;;;;5090700;28;20150;-85
2022/04/23 14:25:44;;;;;;;7.18;2.40;;;;;;;;;;5094955;28;20035;-88
2022/04/23 14:28:10;;;;;;;5.35;2.20;;;;;;;;;;5094269;28;20391;-86
2022/04/23 14:30:37;;;;;;;3.00;1.40;;;;;;;;;;5092245;28;20043;-86
2022/04/23 14:33:03;;;;;;;4.18;1.92;;;;;;;;;;5093490;28;20024;-83
2022/04/23 14:35:28;;;;;;;3.13;1.70;;;;;;;;;;5090573;28;20052;-83
2022/04/23 14:37:53;;;;;;;2.67;1.02;;;;;;;;;;5090424;28;20030;-85
2022/04/23 14:40:21;;;;;;;5.70;1.50;;;;;;;;;;5089503;28;20024;-82
2022/04/23 14:42:55;;;;;;;2.63;1.42;;;;;;;;;;5092911;28;20085;-83
2022/04/23 14:45:20;;;;;;;5.63;1.67;;;;;;;;;;5091565;28;20023;-82
2022/04/23 14:47:46;;;;;;;2.83;1.35;;;;;;;;;;5090013;28;20027;-83
2022/04/23 14:50:12;;;;;;;4.05;1.20;;;;;;;;;;5092012;28;20023;-84
2022/04/23 14:55:21;;;;;;;2.97;1.70;;;;;;;;;;5093121;28;20086;-83
2022/04/23 14:57:47;;;;;;;4.22;1.60;;;;;;;;;;5093204;28;20050;-82
2022/04/23 15:00:14;;;;;;;3.88;1.42;;;;;;;;;;5093246;28;20395;-83
2022/04/23 15:02:39;;;;;;;15.70;10.80;;;;;;;;;;5090908;28;20099;-83
2022/04/23 15:05:08;;;;;;;9.93;2.45;;;;;;;;;;5088886;28;20515;-81
2022/04/23 15:07:34;;;;;;;5.07;1.98;;;;;;;;;;5092604;28;20292;-82
2022/04/23 15:09:59;;;;;;;5.57;2.30;;;;;;;;;;5093051;28;20111;-88
2022/04/23 15:12:27;;;;;;;4.45;2.20;;;;;;;;;;5093203;28;20074;-84
2022/04/23 15:14:53;;;;;;;4.80;1.70;;;;;;;;;;5092855;28;20049;-86
2022/04/23 15:17:19;;;;;;;4.22;2.17;;;;;;;;;;5093009;28;20103;-85
2022/04/23 15:19:44;;;;;;;4.05;1.42;;;;;;;;;;5092044;28;20111;-85
2022/04/23 15:22:10;;;;;;;4.25;1.80;;;;;;;;;;5091496;28;20051;-84
2022/04/23 15:24:35;;;;;;;8.02;3.08;;;;;;;;;;5092541;28;20035;-84
2022/04/23 15:27:01;;;;;;;5.82;2.45;;;;;;;;;;5092898;28;20024;-85
2022/04/23 15:29:27;;;;;;;18.27;8.85;;;;;;;;;;5091850;28;20026;-83
2022/04/23 15:31:52;;;;;;;56.40;30.02;;;;;;;;;;5093599;28;20479;-84
2022/04/23 15:34:20;;;;;;;17.35;11.02;;;;;;;;;;5092782;28;20536;-83
2022/04/23 15:36:54;;;;;;;5.80;3.33;;;;;;;;;;5092045;28;20047;-84
2022/04/23 15:39:23;;;;;;;29.40;19.92;;;;;;;;;;5091171;28;20486;-84